Turbat Weather



Turbat's Current Weather

Temprature 42.062o clear sky

clear sky

Rain: 0 %

Min Temprature42.062o
Max Temprature42.062o
Humidity22
Wind Speed5.23 m/h
Sun Rise05:57:38
Sun Set19:43:15
Current Time: 26-Jun-2019 14:57:24
Lat/Lon: 26, 63.05




Turbat's Geo Location



Turbat's Weather Forecast

Time Overall Temp Min Temp Max Temp Humidity Wind Speed Rain
26-Jun-2019 (Wed)
17:00:00 clear sky 38.350 38.350 38.350 37 11.78 m/h 0 %
20:00:00 clear sky 32.250 32.247 32.250 58 6.22 m/h 0 %
23:00:00 clear sky 29.040 29.040 29.040 69 5.88 m/h 0 %
27-Jun-2019 (Thu)
02:00:00 clear sky 27.180 27.179 27.180 79 3.58 m/h 0 %
05:00:00 clear sky 25.865 25.865 25.865 87 2.53 m/h 0 %
08:00:00 scattered clouds 27.250 27.250 27.250 78 3.2 m/h 0 %
11:00:00 few clouds 34.274 34.274 34.274 45 4.97 m/h 0 %
14:00:00 clear sky 41.650 41.650 41.650 20 7.78 m/h 0 %
17:00:00 clear sky 38.980 38.980 38.980 30 10.5 m/h 0 %
20:00:00 clear sky 31.894 31.894 31.894 49 5.47 m/h 0 %
23:00:00 clear sky 28.335 28.335 28.335 71 2.58 m/h 0 %
28-Jun-2019 (Fri)
02:00:00 clear sky 26.728 26.728 26.728 81 2.16 m/h 0 %
05:00:00 clear sky 25.528 25.528 25.528 90 1.06 m/h 0 %
08:00:00 scattered clouds 27.319 27.319 27.319 80 0.72 m/h 0 %
11:00:00 scattered clouds 35.625 35.625 35.625 34 2.87 m/h 0 %
14:00:00 clear sky 42.431 42.431 42.431 15 4.92 m/h 0 %
17:00:00 clear sky 38.550 38.550 38.550 34 10.56 m/h 0 %
20:00:00 clear sky 31.850 31.850 31.850 52 4.95 m/h 0 %
23:00:00 clear sky 29.172 29.172 29.172 67 2.12 m/h 0 %
29-Jun-2019 (Sat)
02:00:00 clear sky 27.072 27.072 27.072 85 1.96 m/h 0 %
05:00:00 few clouds 26.269 26.269 26.269 90 2.51 m/h 0 %
08:00:00 broken clouds 28.247 28.247 28.247 73 1.82 m/h 0 %
11:00:00 scattered clouds 35.750 35.750 35.750 37 2.61 m/h 0 %
14:00:00 clear sky 42.750 42.750 42.750 18 3.93 m/h 0 %
17:00:00 clear sky 39.491 39.491 39.491 34 8.45 m/h 0 %
20:00:00 clear sky 33.150 33.150 33.150 51 5.08 m/h 0 %
23:00:00 clear sky 28.550 28.550 28.550 77 3.93 m/h 0 %
30-Jun-2019 (Sun)
02:00:00 clear sky 26.686 26.686 26.686 89 2.78 m/h 0 %
05:00:00 few clouds 26.522 26.522 26.522 87 2.18 m/h 0 %
08:00:00 broken clouds 27.972 27.972 27.972 77 1.99 m/h 0 %
11:00:00 scattered clouds 35.318 35.318 35.318 43 2.53 m/h 0 %
14:00:00 clear sky 43.409 43.409 43.409 20 5.05 m/h 0 %
17:00:00 clear sky 40.450 40.450 40.450 32 6.87 m/h 0 %
20:00:00 clear sky 33.150 33.150 33.150 53 2.44 m/h 0 %
23:00:00 clear sky 30.650 30.650 30.650 63 1.12 m/h 0 %
01-Jul-2019 (Mon)
02:00:00 clear sky 28.750 28.750 28.750 71 2.04 m/h 0 %
05:00:00 clear sky 26.435 26.435 26.435 89 2.26 m/h 0 %
08:00:00 few clouds 28.950 28.950 28.950 74 3.77 m/h 0 %
11:00:00 clear sky 35.850 35.850 35.850 43 4.02 m/h 0 %
14:00:00 clear sky 42.550 42.550 42.550 23 5.65 m/h 0 %

Famous Cities (60)